Terminal Aerodrome Forecast
Issued by NWS Hastings, NE

Home | Current Version | Previous Version | Text Only | Print | Product List | Glossary On
Versions: 1 2 3 4 5 6 7 8 9 10 11 12 13 14 15 16 17 18 19 20 21 22 23 24 25 26 27 28 29 30 31 32 33 34 35 36 37 38 39
000
FTUS43 KGID 292320
TAFGRI
TAF
KGRI 292320Z 3000/3024 05014KT P6SM VCSH OVC009
     FM300200 06015KT 6SM -RA OVC008
     FM300800 05016KT 3SM -RA BR OVC003
     FM302000 02015KT 5SM -RA BR SCT003 OVC008=

USA.gov is the U.S. government's official web portal to all federal, state and local government web resources and services.